createdAt,value
2023-02-02T00:01:48.056Z,97620.78
2023-02-02T00:04:24.611Z,97624.72
2023-02-02T00:06:52.539Z,97611.75
2023-02-02T00:09:21.014Z,97605.78
2023-02-02T00:11:49.332Z,97597.09
2023-02-02T00:14:16.453Z,97594.34
2023-02-02T00:16:46.693Z,97591.84
2023-02-02T00:19:19.656Z,97579.19
2023-02-02T00:21:46.854Z,97577.72
2023-02-02T00:24:16.052Z,97579.81
2023-02-02T00:26:44.598Z,97588.59
2023-02-02T00:29:17.655Z,97580.53
2023-02-02T00:31:44.957Z,97590.63
2023-02-02T00:34:14.379Z,97587.00
2023-02-02T00:36:41.993Z,97586.75
2023-02-02T00:39:10.771Z,97583.00
2023-02-02T00:41:37.976Z,97590.44
2023-02-02T00:44:23.736Z,97591.94
2023-02-02T00:46:51.013Z,97591.72
2023-02-02T00:49:17.978Z,97598.78
2023-02-02T00:51:45.493Z,97594.53
2023-02-02T00:54:14.542Z,97588.47
2023-02-02T00:56:43.091Z,97584.25
2023-02-02T00:59:11.975Z,97568.66
2023-02-02T01:01:39.331Z,97559.66
2023-02-02T01:04:06.532Z,97575.16
2023-02-02T01:06:33.575Z,97569.03
2023-02-02T01:09:02.262Z,97575.75
2023-02-02T01:11:31.050Z,97573.50
2023-02-02T01:13:58.246Z,97574.41
2023-02-02T01:16:25.366Z,97583.22
2023-02-02T01:18:52.850Z,97587.16
2023-02-02T01:21:20.211Z,97592.91
2023-02-02T01:23:48.053Z,97580.63
2023-02-02T01:26:16.719Z,97584.13
2023-02-02T01:28:44.530Z,97582.53
2023-02-02T01:31:17.493Z,97590.22
2023-02-02T01:33:46.292Z,97598.50
2023-02-02T01:36:21.899Z,97582.47
2023-02-02T01:38:50.136Z,97573.66
2023-02-02T01:41:23.257Z,97573.06
2023-02-02T01:44:05.350Z,97559.75
2023-02-02T01:46:33.816Z,97548.94
2023-02-02T01:49:09.633Z,97539.31
2023-02-02T01:51:53.731Z,97545.50
2023-02-02T01:54:35.010Z,97549.09
2023-02-02T01:57:29.338Z,97547.88
2023-02-02T01:59:58.781Z,97552.66
2023-02-02T02:02:28.084Z,97533.00
2023-02-02T02:05:00.052Z,97544.31
2023-02-02T02:07:27.089Z,97533.50
2023-02-02T02:09:56.689Z,97546.31
2023-02-02T02:12:23.730Z,97539.06
2023-02-02T02:15:10.289Z,97555.75
2023-02-02T02:17:44.531Z,97550.81
2023-02-02T02:20:42.142Z,97543.47
2023-02-02T02:23:52.690Z,97535.88
2023-02-02T02:26:55.089Z,97541.38
2023-02-02T02:29:52.210Z,97540.88
2023-02-02T02:32:40.690Z,97538.59
2023-02-02T02:35:30.528Z,97538.28
2023-02-02T02:38:03.509Z,97532.53
2023-02-02T02:40:38.383Z,97528.41
2023-02-02T02:43:16.373Z,97522.34
2023-02-02T02:45:44.861Z,97546.59
2023-02-02T02:48:13.662Z,97533.69
2023-02-02T02:50:40.786Z,97535.66
2023-02-02T02:53:13.330Z,97533.66
2023-02-02T02:56:26.141Z,97544.88
2023-02-02T02:59:07.497Z,97540.84
2023-02-02T03:01:41.760Z,97534.50
2023-02-02T03:04:28.856Z,97533.94
2023-02-02T03:07:05.540Z,97541.38
2023-02-02T03:09:38.371Z,97523.16
2023-02-02T03:12:05.744Z,97524.38
2023-02-02T03:14:36.855Z,97520.03
2023-02-02T03:17:03.890Z,97522.16
2023-02-02T03:19:31.261Z,97530.66
2023-02-02T03:21:58.376Z,97519.91
2023-02-02T03:24:27.343Z,97516.81
2023-02-02T03:26:54.613Z,97503.00
2023-02-02T03:29:21.734Z,97505.16
2023-02-02T03:31:49.011Z,97507.38
2023-02-02T03:34:15.969Z,97509.75
2023-02-02T03:36:42.856Z,97507.38
2023-02-02T03:39:09.890Z,97507.03
2023-02-02T03:41:36.938Z,97507.84
2023-02-02T03:44:04.130Z,97509.53
2023-02-02T03:46:31.272Z,97501.03
2023-02-02T03:48:58.302Z,97492.13
2023-02-02T03:51:25.290Z,97498.56
2023-02-02T03:53:52.291Z,97495.44
2023-02-02T03:56:19.727Z,97493.78
2023-02-02T03:58:47.488Z,97487.13
2023-02-02T04:01:17.331Z,97487.00
2023-02-02T04:03:46.528Z,97486.50
2023-02-02T04:06:13.572Z,97476.78
2023-02-02T04:08:40.569Z,97480.50
2023-02-02T04:11:10.772Z,97467.09
2023-02-02T04:13:38.301Z,97457.31
2023-02-02T04:16:05.734Z,97456.75
2023-02-02T04:18:32.777Z,97470.53
2023-02-02T04:21:04.049Z,97476.03
2023-02-02T04:23:31.633Z,97481.06
2023-02-02T04:25:59.657Z,97471.59
2023-02-02T04:28:27.490Z,97493.34
2023-02-02T04:30:56.085Z,97500.44
2023-02-02T04:33:25.661Z,97499.16
2023-02-02T04:35:52.775Z,97516.97
2023-02-02T04:38:20.371Z,97516.97
2023-02-02T04:40:48.685Z,97525.38
2023-02-02T04:43:16.072Z,97520.97
2023-02-02T04:45:43.164Z,97524.25
2023-02-02T04:48:11.975Z,97539.56
2023-02-02T04:50:38.939Z,97550.19
2023-02-02T04:53:06.293Z,97553.41
2023-02-02T04:55:37.093Z,97563.09
2023-02-02T04:58:04.854Z,97584.63
2023-02-02T05:00:31.744Z,97575.25
2023-02-02T05:02:58.517Z,97578.56
2023-02-02T05:05:25.875Z,97586.97
2023-02-02T05:07:55.130Z,97578.44
2023-02-02T05:10:22.480Z,97590.16
2023-02-02T05:12:53.175Z,97587.09
2023-02-02T05:15:21.576Z,97580.44
2023-02-02T05:17:49.822Z,97593.09
2023-02-02T05:20:17.159Z,97588.34
2023-02-02T05:22:44.465Z,97583.00
2023-02-02T05:25:11.533Z,97577.91
2023-02-02T05:27:40.168Z,97584.59
2023-02-02T05:30:08.405Z,97585.41
2023-02-02T05:32:35.524Z,97578.16
2023-02-02T05:35:02.803Z,97574.81
2023-02-02T05:37:30.089Z,97572.53
2023-02-02T05:39:57.416Z,97573.56
2023-02-02T05:42:24.883Z,97577.63
2023-02-02T05:44:52.303Z,97576.09
2023-02-02T05:47:20.168Z,97580.03
2023-02-02T05:49:47.891Z,97590.56
2023-02-02T05:52:20.008Z,97600.75
2023-02-02T05:54:48.071Z,97611.91
2023-02-02T05:57:15.605Z,97609.84
2023-02-02T05:59:43.540Z,97621.19
2023-02-02T06:02:10.885Z,97631.00
2023-02-02T06:04:38.324Z,97637.22
2023-02-02T06:07:05.684Z,97631.09
2023-02-02T06:09:33.384Z,97626.50
2023-02-02T06:12:00.724Z,97648.47
2023-02-02T06:14:28.371Z,97639.41
2023-02-02T06:16:55.770Z,97661.56
2023-02-02T06:19:23.315Z,97662.03
2023-02-02T06:21:50.800Z,97678.38
2023-02-02T06:24:18.255Z,97696.59
2023-02-02T06:26:45.669Z,97715.78
2023-02-02T06:29:16.003Z,97719.78
2023-02-02T06:31:44.547Z,97720.34
2023-02-02T06:34:16.472Z,97729.69
2023-02-02T06:36:47.235Z,97732.75
2023-02-02T06:39:16.706Z,97752.00
2023-02-02T06:41:47.132Z,97747.63
2023-02-02T06:44:15.698Z,97758.56
2023-02-02T06:46:45.693Z,97762.28
2023-02-02T06:49:19.284Z,97757.53
2023-02-02T06:51:51.299Z,97766.94
2023-02-02T06:54:22.393Z,97745.22
2023-02-02T06:56:51.427Z,97766.19
2023-02-02T06:59:21.610Z,97763.78
2023-02-02T07:01:53.361Z,97748.72
2023-02-02T07:04:23.311Z,97756.34
2023-02-02T07:06:54.014Z,97766.09
2023-02-02T07:09:23.626Z,97765.63
2023-02-02T07:11:51.449Z,97770.81
2023-02-02T07:14:24.150Z,97766.84
2023-02-02T07:16:56.407Z,97766.09
2023-02-02T07:19:25.687Z,97774.72
2023-02-02T07:21:53.920Z,97784.50
2023-02-02T07:24:23.651Z,97785.50
2023-02-02T07:26:52.405Z,97796.34
2023-02-02T07:29:21.218Z,97799.69
2023-02-02T07:31:48.701Z,97802.69
2023-02-02T07:34:19.606Z,97800.91
2023-02-02T07:36:47.525Z,97799.81
2023-02-02T07:39:16.324Z,97793.59
2023-02-02T07:41:46.974Z,97801.16
2023-02-02T07:44:28.277Z,97809.91
2023-02-02T07:46:57.291Z,97808.50
2023-02-02T07:49:30.111Z,97813.59
2023-02-02T07:52:00.256Z,97816.09
2023-02-02T07:54:28.574Z,97825.28
2023-02-02T07:56:55.618Z,97824.91
2023-02-02T07:59:22.860Z,97823.00
2023-02-02T08:01:50.232Z,97826.16
2023-02-02T08:04:17.569Z,97826.16
2023-02-02T08:06:44.989Z,97826.88
2023-02-02T08:09:12.017Z,97830.06
2023-02-02T08:11:39.541Z,97831.22
2023-02-02T08:14:07.060Z,97833.41
2023-02-02T08:16:35.024Z,97841.22
2023-02-02T08:19:02.259Z,97848.72
2023-02-02T08:21:29.192Z,97840.47
2023-02-02T08:23:56.261Z,97841.50
2023-02-02T08:26:27.022Z,97842.88
2023-02-02T08:28:57.548Z,97848.28
2023-02-02T08:31:31.830Z,97848.44
2023-02-02T08:33:59.301Z,97852.00
2023-02-02T08:36:28.898Z,97848.28
2023-02-02T08:38:56.263Z,97854.41
2023-02-02T08:41:24.501Z,97863.03
2023-02-02T08:43:52.109Z,97875.59
2023-02-02T08:46:21.154Z,97877.94
2023-02-02T08:48:49.018Z,97883.03
2023-02-02T08:51:19.563Z,97884.88
2023-02-02T08:53:47.399Z,97890.84
2023-02-02T08:56:17.712Z,97901.44
2023-02-02T08:58:47.149Z,97905.16
2023-02-02T09:01:20.356Z,97908.13
2023-02-02T09:03:47.633Z,97916.66
2023-02-02T09:06:17.632Z,97919.84
2023-02-02T09:08:46.540Z,97921.50
2023-02-02T09:11:17.316Z,97926.16
2023-02-02T09:13:46.756Z,97925.59
2023-02-02T09:16:16.384Z,97928.66
2023-02-02T09:18:44.273Z,97931.59
2023-02-02T09:21:14.076Z,97932.31
2023-02-02T09:23:43.087Z,97922.84
2023-02-02T09:26:25.472Z,97935.19
2023-02-02T09:28:55.633Z,97934.13
2023-02-02T09:31:23.753Z,97938.72
2023-02-02T09:33:51.321Z,97943.63
2023-02-02T09:36:24.034Z,97946.19
2023-02-02T09:38:52.111Z,97940.78
2023-02-02T09:41:37.012Z,97941.06
2023-02-02T09:44:34.855Z,97937.94
2023-02-02T09:47:30.669Z,97933.56
2023-02-02T09:50:23.429Z,97941.72
2023-02-02T09:53:21.792Z,97941.84
2023-02-02T09:55:53.077Z,97945.78
2023-02-02T09:58:24.589Z,97944.75
2023-02-02T10:01:15.775Z,97959.06
2023-02-02T10:03:58.651Z,97949.94
2023-02-02T10:06:34.687Z,97949.94
2023-02-02T10:09:43.980Z,97954.78
2023-02-02T10:12:36.038Z,97953.69
2023-02-02T10:15:17.952Z,97961.50
2023-02-02T10:18:06.205Z,97950.06
2023-02-02T10:20:59.269Z,97949.50
2023-02-02T10:23:41.315Z,97943.63
2023-02-02T10:26:34.104Z,97954.44
2023-02-02T10:29:40.080Z,97951.44
2023-02-02T10:32:14.993Z,97953.47
2023-02-02T10:35:15.200Z,97947.88
2023-02-02T10:38:00.518Z,97952.56
2023-02-02T10:40:42.430Z,97958.16
2023-02-02T10:43:37.072Z,97956.91
2023-02-02T10:46:06.205Z,97948.03
2023-02-02T10:48:37.818Z,97950.09
2023-02-02T10:51:27.320Z,97939.75
2023-02-02T10:53:57.573Z,97939.69
2023-02-02T10:56:39.710Z,97929.78
2023-02-02T10:59:13.794Z,97940.06
2023-02-02T11:01:40.945Z,97942.75
2023-02-02T11:04:29.377Z,97942.53
2023-02-02T11:06:56.830Z,97927.75
2023-02-02T11:09:30.759Z,97937.50
2023-02-02T11:12:35.871Z,97932.09
2023-02-02T11:15:06.762Z,97928.25
2023-02-02T11:17:34.901Z,97916.47
2023-02-02T11:20:02.144Z,97921.28
2023-02-02T11:22:34.232Z,97909.78
2023-02-02T11:25:07.441Z,97910.94
2023-02-02T11:27:41.173Z,97905.38
2023-02-02T11:30:36.106Z,97898.63
2023-02-02T11:33:34.290Z,97901.63
2023-02-02T11:36:04.673Z,97895.78
2023-02-02T11:38:32.115Z,97888.47
2023-02-02T11:41:05.427Z,97884.75
2023-02-02T11:43:32.597Z,97882.03
2023-02-02T11:46:05.823Z,97883.91
2023-02-02T11:48:39.329Z,97886.34
2023-02-02T11:51:08.245Z,97875.50
2023-02-02T11:53:38.807Z,97883.28
2023-02-02T11:56:19.138Z,97878.25
2023-02-02T11:59:00.146Z,97885.16
2023-02-02T12:01:37.280Z,97883.78
2023-02-02T12:04:24.839Z,97880.34
2023-02-02T12:06:54.129Z,97885.06
2023-02-02T12:09:26.252Z,97881.81
2023-02-02T12:11:56.292Z,97879.63
2023-02-02T12:14:41.467Z,97882.31
2023-02-02T12:17:27.132Z,97878.16
2023-02-02T12:20:12.964Z,97877.22
2023-02-02T12:23:04.608Z,97873.25
2023-02-02T12:25:34.597Z,97880.34
2023-02-02T12:28:23.081Z,97879.13
2023-02-02T12:31:11.966Z,97880.38
2023-02-02T12:33:45.227Z,97883.34
2023-02-02T12:36:18.354Z,97886.00
2023-02-02T12:39:30.698Z,97885.13
2023-02-02T12:42:35.093Z,97875.28
2023-02-02T12:45:26.241Z,97886.06
2023-02-02T12:48:14.933Z,97876.78
2023-02-02T12:50:57.692Z,97872.41
2023-02-02T12:53:39.580Z,97873.78
2023-02-02T12:56:21.141Z,97879.16
2023-02-02T12:59:14.353Z,97874.03
2023-02-02T13:02:13.052Z,97876.78
2023-02-02T13:04:46.244Z,97876.69
2023-02-02T13:07:21.222Z,97876.63
2023-02-02T13:10:03.432Z,97876.41
2023-02-02T13:12:34.839Z,97873.59
2023-02-02T13:15:07.902Z,97876.19
2023-02-02T13:18:01.225Z,97870.91
2023-02-02T13:20:28.845Z,97871.66
2023-02-02T13:23:00.605Z,97872.38
2023-02-02T13:25:39.119Z,97876.41
2023-02-02T13:28:11.894Z,97873.69
2023-02-02T13:30:40.464Z,97865.78
2023-02-02T13:33:17.524Z,97876.44
2023-02-02T13:36:07.054Z,97872.66
2023-02-02T13:38:35.396Z,97867.75
2023-02-02T13:41:08.106Z,97878.78
2023-02-02T13:43:57.730Z,97858.16
2023-02-02T13:46:32.292Z,97878.78
2023-02-02T13:49:13.669Z,97866.28
2023-02-02T13:51:50.785Z,97876.28
2023-02-02T13:54:45.757Z,97881.50
2023-02-02T13:57:36.553Z,97878.50
2023-02-02T14:00:20.728Z,97886.81
2023-02-02T14:02:56.881Z,97880.13
2023-02-02T14:05:28.663Z,97877.22
2023-02-02T14:08:04.450Z,97887.66
2023-02-02T14:10:38.783Z,97883.63
2023-02-02T14:13:33.632Z,97886.53
2023-02-02T14:16:05.973Z,97893.97
2023-02-02T14:18:55.559Z,97887.50
2023-02-02T14:21:31.794Z,97888.63
2023-02-02T14:24:03.421Z,97887.66
2023-02-02T14:26:50.411Z,97888.69
2023-02-02T14:29:31.596Z,97891.81
2023-02-02T14:31:58.567Z,97891.81
2023-02-02T14:34:39.672Z,97899.31
2023-02-02T14:37:25.152Z,97898.91
2023-02-02T14:40:01.126Z,97893.50
2023-02-02T14:43:04.637Z,97895.00
2023-02-02T14:45:46.127Z,97902.94
2023-02-02T14:48:26.015Z,97897.44
2023-02-02T14:50:58.764Z,97901.72
2023-02-02T14:53:34.089Z,97909.47
2023-02-02T14:56:01.434Z,97912.38
2023-02-02T14:58:42.086Z,97912.91
2023-02-02T15:01:23.216Z,97912.78
2023-02-02T15:03:58.197Z,97913.94
2023-02-02T15:06:33.173Z,97918.88
2023-02-02T15:09:28.811Z,97912.22
2023-02-02T15:12:04.767Z,97912.66
2023-02-02T15:15:19.926Z,97914.16
2023-02-02T15:18:12.641Z,97929.59
2023-02-02T15:20:49.699Z,97936.19
2023-02-02T15:23:39.361Z,97929.41
2023-02-02T15:26:42.832Z,97926.91
2023-02-02T15:29:44.526Z,97933.03
2023-02-02T15:32:20.501Z,97930.44
2023-02-02T15:34:52.663Z,97935.44
2023-02-02T15:37:26.389Z,97937.31
2023-02-02T15:39:58.651Z,97946.78
2023-02-02T15:42:54.579Z,97939.88
2023-02-02T15:45:44.235Z,97943.94
2023-02-02T15:48:20.953Z,97956.19
2023-02-02T15:50:51.641Z,97958.06
2023-02-02T15:53:23.984Z,97958.94
2023-02-02T15:55:52.994Z,97961.06
2023-02-02T15:58:29.465Z,97980.81
2023-02-02T16:01:17.499Z,97974.03
2023-02-02T16:04:03.538Z,97991.25
2023-02-02T16:06:31.463Z,97982.13
2023-02-02T16:08:59.334Z,97998.72
2023-02-02T16:11:28.181Z,97981.84
2023-02-02T16:14:02.535Z,97997.03
2023-02-02T16:16:36.984Z,97999.41
2023-02-02T16:19:09.354Z,97997.81
2023-02-02T16:21:44.403Z,98001.34
2023-02-02T16:24:33.295Z,98012.63
2023-02-02T16:27:05.431Z,98021.88
2023-02-02T16:29:34.420Z,98013.00
2023-02-02T16:32:02.141Z,98021.38
2023-02-02T16:34:43.602Z,98025.81
2023-02-02T16:37:25.497Z,98025.22
2023-02-02T16:39:53.109Z,98039.13
2023-02-02T16:42:31.606Z,98025.88
2023-02-02T16:45:00.521Z,98021.84
2023-02-02T16:47:28.838Z,98041.75
2023-02-02T16:50:26.559Z,98027.28
2023-02-02T16:53:05.533Z,98048.41
2023-02-02T16:55:49.297Z,98038.25
2023-02-02T16:58:22.171Z,98047.56
2023-02-02T17:01:16.068Z,98047.78
2023-02-02T17:03:55.559Z,98061.38
2023-02-02T17:06:42.145Z,98057.69
2023-02-02T17:09:34.789Z,98072.50
2023-02-02T17:12:34.788Z,98072.66
2023-02-02T17:15:29.427Z,98102.56
2023-02-02T17:17:57.225Z,98094.63
2023-02-02T17:20:26.391Z,98105.69
2023-02-02T17:23:00.931Z,98102.03
2023-02-02T17:25:33.071Z,98120.63
2023-02-02T17:28:02.657Z,98110.91
2023-02-02T17:30:30.510Z,98120.09
2023-02-02T17:32:58.589Z,98120.69
2023-02-02T17:35:37.088Z,98131.72
2023-02-02T17:38:10.956Z,98135.38
2023-02-02T17:40:39.407Z,98136.22
2023-02-02T17:43:11.257Z,98144.56
2023-02-02T17:45:39.747Z,98147.75
2023-02-02T17:48:07.299Z,98149.06
2023-02-02T17:50:34.628Z,98153.13
2023-02-02T17:53:03.923Z,98154.94
2023-02-02T17:55:36.539Z,98159.44
2023-02-02T17:58:04.129Z,98152.34
2023-02-02T18:00:32.240Z,98171.56
2023-02-02T18:03:13.154Z,98176.16
2023-02-02T18:05:43.251Z,98180.00
2023-02-02T18:08:12.903Z,98186.69
2023-02-02T18:10:40.899Z,98190.91
2023-02-02T18:13:08.376Z,98205.53
2023-02-02T18:15:36.003Z,98205.31
2023-02-02T18:18:02.808Z,98206.59
2023-02-02T18:20:29.767Z,98209.53
2023-02-02T18:22:56.933Z,98216.78
2023-02-02T18:25:25.375Z,98225.09
2023-02-02T18:27:56.375Z,98226.78
2023-02-02T18:30:24.960Z,98225.66
2023-02-02T18:32:52.695Z,98233.59
2023-02-02T18:35:19.841Z,98233.66
2023-02-02T18:37:49.543Z,98237.84
2023-02-02T18:40:17.662Z,98250.78
2023-02-02T18:42:45.697Z,98247.84
2023-02-02T18:45:12.775Z,98254.25
2023-02-02T18:47:42.397Z,98251.88
2023-02-02T18:50:10.535Z,98261.06
2023-02-02T18:52:38.319Z,98268.34
2023-02-02T18:55:07.063Z,98263.16
2023-02-02T18:57:33.975Z,98266.09
2023-02-02T19:00:02.558Z,98266.25
2023-02-02T19:02:29.516Z,98279.97
2023-02-02T19:05:16.053Z,98277.63
2023-02-02T19:07:55.075Z,98275.41
2023-02-02T19:10:24.562Z,98279.81
2023-02-02T19:13:09.263Z,98272.09
2023-02-02T19:15:39.345Z,98278.22
2023-02-02T19:18:14.502Z,98276.41
2023-02-02T19:20:42.602Z,98285.78
2023-02-02T19:23:16.070Z,98282.28
2023-02-02T19:25:46.566Z,98293.75
2023-02-02T19:28:29.954Z,98293.59
2023-02-02T19:31:01.306Z,98305.94
2023-02-02T19:33:40.275Z,98297.00
2023-02-02T19:36:22.415Z,98302.13
2023-02-02T19:38:58.861Z,98295.34
2023-02-02T19:41:27.560Z,98311.69
2023-02-02T19:44:12.127Z,98303.03
2023-02-02T19:46:45.247Z,98326.50
2023-02-02T19:49:21.727Z,98326.28
2023-02-02T19:51:54.852Z,98319.16
2023-02-02T19:54:35.507Z,98321.19
2023-02-02T19:57:14.840Z,98323.03
2023-02-02T19:59:46.756Z,98329.31
2023-02-02T20:02:39.178Z,98334.69
2023-02-02T20:05:12.251Z,98343.66
2023-02-02T20:07:39.295Z,98345.75
2023-02-02T20:10:22.223Z,98343.25
2023-02-02T20:12:51.048Z,98351.13
2023-02-02T20:15:35.609Z,98349.56
2023-02-02T20:18:06.222Z,98352.78
2023-02-02T20:20:43.778Z,98357.84
2023-02-02T20:23:43.950Z,98357.97
2023-02-02T20:26:23.630Z,98368.50
2023-02-02T20:28:51.429Z,98365.13
2023-02-02T20:31:22.958Z,98372.91
2023-02-02T20:33:55.524Z,98369.50
2023-02-02T20:36:38.848Z,98377.22
2023-02-02T20:39:23.596Z,98376.34
2023-02-02T20:41:51.151Z,98379.88
2023-02-02T20:44:20.945Z,98382.41
2023-02-02T20:46:48.366Z,98381.47
2023-02-02T20:49:15.675Z,98395.22
2023-02-02T20:51:42.791Z,98401.19
2023-02-02T20:54:10.902Z,98400.56
2023-02-02T20:56:39.753Z,98390.31
2023-02-02T20:59:07.353Z,98394.88
2023-02-02T21:01:34.786Z,98389.41
2023-02-02T21:04:01.904Z,98391.59
2023-02-02T21:06:29.605Z,98392.47
2023-02-02T21:08:57.491Z,98382.09
2023-02-02T21:11:24.074Z,98386.81
2023-02-02T21:13:55.840Z,98407.47
2023-02-02T21:16:22.621Z,98400.78
2023-02-02T21:18:50.613Z,98407.78
2023-02-02T21:21:19.745Z,98405.44
2023-02-02T21:23:49.058Z,98409.47
2023-02-02T21:28:51.054Z,98421.81
2023-02-02T21:31:19.375Z,98415.41
2023-02-02T21:33:48.645Z,98421.78
2023-02-02T21:36:29.813Z,98424.88
2023-02-02T21:39:24.837Z,98420.22
2023-02-02T21:42:19.018Z,98425.56
2023-02-02T21:44:58.786Z,98426.97
2023-02-02T21:47:33.303Z,98425.41
2023-02-02T21:50:15.573Z,98428.53
2023-02-02T21:52:43.229Z,98433.81
2023-02-02T21:55:29.209Z,98438.91
2023-02-02T21:57:58.212Z,98441.41
2023-02-02T22:00:32.347Z,98452.69
2023-02-02T22:02:59.197Z,98446.78
2023-02-02T22:05:28.794Z,98446.16
2023-02-02T22:07:57.871Z,98445.94
2023-02-02T22:10:37.238Z,98451.13
2023-02-02T22:13:16.989Z,98450.28
2023-02-02T22:15:48.273Z,98449.00
2023-02-02T22:18:21.910Z,98462.25
2023-02-02T22:20:51.142Z,98458.25
2023-02-02T22:23:22.876Z,98458.34
2023-02-02T22:25:53.045Z,98458.63
2023-02-02T22:28:22.341Z,98465.50
2023-02-02T22:30:51.435Z,98455.75
2023-02-02T22:33:18.157Z,98456.03
2023-02-02T22:35:45.219Z,98457.72
2023-02-02T22:38:21.366Z,98465.25
2023-02-02T22:40:49.740Z,98458.25
2023-02-02T22:43:18.539Z,98458.25
2023-02-02T22:45:46.010Z,98457.19
2023-02-02T22:48:14.086Z,98466.91
2023-02-02T22:50:43.403Z,98466.72
2023-02-02T22:53:10.206Z,98475.22
2023-02-02T22:55:36.932Z,98471.25
2023-02-02T22:58:03.692Z,98468.47
2023-02-02T23:00:34.815Z,98473.72
2023-02-02T23:03:02.060Z,98466.78
2023-02-02T23:05:28.775Z,98457.78
2023-02-02T23:07:56.028Z,98458.34
2023-02-02T23:10:25.899Z,98462.25
2023-02-02T23:12:54.950Z,98464.22
2023-02-02T23:15:21.928Z,98463.34
2023-02-02T23:17:48.740Z,98460.06
2023-02-02T23:20:16.088Z,98456.88
2023-02-02T23:22:43.406Z,98456.88
2023-02-02T23:25:11.387Z,98452.81
2023-02-02T23:27:38.129Z,98450.66
2023-02-02T23:30:07.081Z,98456.81
2023-02-02T23:32:34.038Z,98458.03
2023-02-02T23:35:01.083Z,98478.06
2023-02-02T23:37:27.824Z,98465.53
2023-02-02T23:39:54.442Z,98471.91
2023-02-02T23:42:21.170Z,98470.41
2023-02-02T23:44:48.080Z,98474.88
2023-02-02T23:47:14.803Z,98470.13
2023-02-02T23:49:41.465Z,98470.47
2023-02-02T23:52:11.542Z,98481.69
2023-02-02T23:54:38.914Z,98484.31
2023-02-02T23:57:06.577Z,98482.69
2023-02-02T23:59:34.467Z,98470.22
